Tome, NM (87060)

6:02 PM MST on February 24, 2017 (GMT -0700)
Pasitos del Cielo | | Change Station

Elev 4931 ft 34.73 °N, 106.70 °W | Updated 35 seconds ago

Clear
Clear
46.4 °F
Feels Like 46 °F
N
2.7
Wind Variable Wind from West
Gusts 4.9 mph

Today
High -- | Low -- °F
--% Chance of Precip.
Yesterday
High -- | Low -- °F
Precip. -- in
Pressure 29.98 in
Visibility 10.0 miles
Clouds Clear
Windchill 46 °F
Dew Point 8 °F
Humidity 20%
Rainfall 0.00 in
Snow Depth Not available.
6:41 AM 5:58 PM
Waning Crescent, 3% visible
METAR KE80 250055Z AUTO 27013KT 10SM CLR 07/M19 A2998 RMK AO2 T00681192
Pressure 29.98 in
Visibility 10.0 miles
Clouds Clear
Windchill 46 °F
Dew Point 8 °F
Humidity 20%
Rainfall 0.00 in
Snow Depth Not available.
6:41 AM 5:58 PM
Waning Crescent, 3% visible
METAR KE80 250055Z AUTO 27013KT 10SM CLR 07/M19 A2998 RMK AO2 T00681192

Get Your Daily Forecast Email!

Thanks for signing up!

Be on the lookout for a verification email in your inbox.

You'll start receiving the daily forecast at 8 AM.

×

10-Day Weather Forecast

Almanac

Astronomy

Feb. 24, 2017 Rise Set
Actual Time
Civil Twilight
Nautical Twilight
Astronomical Twilight
Moon
Length of Visible Light
Length of Day
Tomorrow will be .
, % of the Moon is Illuminated

Today's Extremes

State Highs State Lows

Community

WunderPhotos

Upload Photos

1,962,540 photos uploaded!

WunderBlog® & News

Nearby

Air Quality

  Air Quality AQ Index Pollutant
Not available.

Snow Depth

Station Depth Elevation

Earthquake Activity

City Distance Mag. Time & Date
Minimum magnitude displayed is 2.5.

Coastal Water Temperatures

Place Temperature

Stations

Nearby Weather Stations

Station Location Temp. Windchill Dew Point Humidity Wind Precip. Elev Updated Type
                   

Watches & Warnings

There are currently no watches in effect.